KORG

Details ICAO KORG
Name ORANGE CO
Region United States
Timezone America/Chicago (UTC-5.0)
Plans Departing 4
Arriving 12
Stats Elevation 13 ft / 4 m (AMSL)
Location 30.068618° -93.804829°
Runways 2
Magnetic Variation 1.477° E
Sunrise 2018-05-24 11:18:28 UTC / 2018-05-24 06:18:28 Local
Sunset 2018-05-25 01:08:34 UTC / 2018-05-24 20:08:34 Local
Advertisement - Login to hide

Runways

ID Width Length Bearing (true) Bearing (mag) Surface Threshold Offset Overrun Length
04 75 ft / 23 m 5,506 ft / 1,678 m 42.01° 40.53° Asphalt 0 ft / 0 m 0 ft / 0 m
13 50 ft / 15 m 3,008 ft / 917 m 137.22° 135.74° Grass 0 ft / 0 m 0 ft / 0 m
22 75 ft / 23 m 5,506 ft / 1,678 m 222.02° 220.54° Asphalt 0 ft / 0 m 0 ft / 0 m
31 50 ft / 15 m 3,008 ft / 917 m 317.22° 315.74° Grass 0 ft / 0 m 0 ft / 0 m

Map

Weather


0- 5 10 15 20 25 30 35+ Temperature / ° C

Clouds and Precipitation
Forecast for 2018-05-25 00:00 UTC. Updated 4 hours ago

Ground ~20,000 ft ~40,000 ft Winds

METAR

KORG 250335Z AUTO 00000KT 10SM CLR 23/23 A3004 RMK AO2 T02300229

TAF

Not found

Frequencies

Recorded 118.97 MHz AWOS 3
Approach 121.30 MHz HOUSTON APP/DEP
Unicom 122.80 MHz CTAF/UNICOM
Warning: Do not use this data for real-world aviation or navigation. No guarantee of current accuracy is given.